Time;durP1;ratioP1;P1;durP2;ratioP2;P2;SDS_P1;SDS_P2;PMS_P1;PMS_P2;Temp;Humidity;BMP_temperature;BMP_pressure;BME280_temperature;BME280_humidity;BME280_pressure;Samples;Min_cycle;Max_cycle;Signal;HPM_P1;HPM_P2
2021/07/22 00:00:07;;;;;;;;;;;;;;;18.14;57.52;96955.59;5002420;28;19973;-78
2021/07/22 00:02:33;;;;;;;;;;;;;;;18.11;57.40;96956.06;5014855;28;19966;-79
2021/07/22 00:04:59;;;;;;;;;;;;;;;18.08;57.25;96953.13;5014776;28;20060;-78
2021/07/22 00:07:25;;;;;;;;;;;;;;;18.05;57.36;96965.84;5015476;28;19970;-78
2021/07/22 00:09:51;;;;;;;;;;;;;;;18.01;57.16;96959.44;5014786;28;19997;-78
2021/07/22 00:12:17;;;;;;;;;;;;;;;17.99;56.98;96961.53;4997278;28;20005;-79
2021/07/22 00:14:42;;;;;;;;;;;;;;;17.97;57.50;96960.19;5014890;28;19969;-78
2021/07/22 00:17:09;;;;;;;;;;;;;;;17.95;58.09;96957.00;5014917;28;19982;-78
2021/07/22 00:19:35;;;;;;;;;;;;;;;17.90;58.07;96963.06;5014577;28;19970;-78
2021/07/22 00:22:02;;;;;;;;;;;;;;;17.85;58.07;96963.81;5014619;28;19973;-79
2021/07/22 00:24:28;;;;;;;;;;;;;;;17.80;58.79;96958.41;5014387;28;20350;-78
2021/07/22 00:26:54;;;;;;;;;;;;;;;17.76;59.12;96949.38;5013239;28;19981;-81
2021/07/22 00:29:21;;;;;;;;;;;;;;;17.71;59.66;96956.50;4997960;28;19962;-80
2021/07/22 00:31:47;;;;;;;;;;;;;;;17.63;59.32;96950.56;4989404;28;19966;-80
2021/07/22 00:34:13;;;;;;;;;;;;;;;17.58;59.86;96947.88;4997078;28;19972;-80
2021/07/22 00:36:39;;;;;;;;;;;;;;;17.53;60.97;96947.81;4997014;28;19984;-79
2021/07/22 00:39:05;;;;;;;;;;;;;;;17.47;59.88;96946.19;4988407;28;19994;-79
2021/07/22 00:41:37;;;;;;;;;;;;;;;17.45;60.10;96937.69;4984326;28;19984;-79
2021/07/22 00:44:03;;;;;;;;;;;;;;;17.43;59.98;96942.44;4992932;28;19977;-78
2021/07/22 00:46:29;;;;;;;;;;;;;;;17.40;60.19;96943.72;4977442;28;19986;-78
2021/07/22 00:48:55;;;;;;;;;;;;;;;17.34;60.13;96935.94;4996409;28;19973;-79
2021/07/22 00:51:21;;;;;;;;;;;;;;;17.31;60.35;96936.47;4996805;28;20019;-79
2021/07/22 00:53:47;;;;;;;;;;;;;;;17.29;60.43;96938.56;4988790;28;19993;-77
2021/07/22 00:56:12;;;;;;;;;;;;;;;17.28;59.77;96936.94;4981036;28;20493;-77
2021/07/22 00:58:38;;;;;;;;;;;;;;;17.25;60.05;96939.03;5009841;28;20468;-79
2021/07/22 01:01:04;;;;;;;;;;;;;;;17.24;60.18;96934.00;4991801;28;20064;-77
2021/07/22 01:03:31;;;;;;;;;;;;;;;17.24;59.75;96926.06;5014117;28;19981;-77
2021/07/22 01:05:57;;;;;;;;;;;;;;;17.23;60.36;96935.84;5014066;28;20349;-77
2021/07/22 01:08:23;;;;;;;;;;;;;;;17.21;60.67;96932.63;5012666;28;19966;-77
2021/07/22 01:10:49;;;;;;;;;;;;;;;17.18;60.94;96929.69;4995733;28;20438;-77
2021/07/22 01:13:15;;;;;;;;;;;;;;;17.15;61.50;96932.81;5014434;28;20057;-77
2021/07/22 01:15:41;;;;;;;;;;;;;;;17.12;61.40;96915.56;5013926;28;19976;-77
2021/07/22 01:18:07;;;;;;;;;;;;;;;17.09;61.27;96915.25;5014321;28;19990;-77
2021/07/22 01:20:34;;;;;;;;;;;;;;;17.08;61.40;96916.31;5013717;28;19970;-77
2021/07/22 01:23:00;;;;;;;;;;;;;;;17.07;60.96;96912.84;5006327;28;20370;-77
2021/07/22 01:25:26;;;;;;;;;;;;;;;17.10;60.64;96916.88;5013920;28;19974;-77
2021/07/22 01:27:53;;;;;;;;;;;;;;;17.11;60.21;96910.53;5013838;28;19970;-77
2021/07/22 01:30:19;;;;;;;;;;;;;;;17.11;61.02;96906.00;4996118;28;19961;-77
2021/07/22 01:32:46;;;;;;;;;;;;;;;17.11;61.10;96911.31;5013864;28;19970;-77
2021/07/22 01:35:12;;;;;;;;;;;;;;;17.10;60.88;96903.63;5001160;28;19970;-77
2021/07/22 01:37:39;;;;;;;;;;;;;;;17.08;60.99;96903.06;4995430;28;20322;-76
2021/07/22 01:40:05;;;;;;;;;;;;;;;17.05;61.03;96901.72;5013422;28;20415;-77
2021/07/22 01:42:31;;;;;;;;;;;;;;;17.03;60.99;96895.88;5013964;28;20029;-76
2021/07/22 01:44:57;;;;;;;;;;;;;;;17.03;61.01;96909.13;5013606;28;19969;-76
2021/07/22 01:47:23;;;;;;;;;;;;;;;17.00;61.03;96904.31;5013281;28;19966;-76
2021/07/22 01:49:49;;;;;;;;;;;;;;;16.99;61.18;96902.72;4996133;28;20057;-77
2021/07/22 01:52:15;;;;;;;;;;;;;;;16.97;61.42;96904.81;5012328;28;19976;-82
2021/07/22 01:54:41;;;;;;;;;;;;;;;16.97;61.23;96902.16;4995697;28;20472;-81
2021/07/22 01:57:07;;;;;;;;;;;;;;;16.94;61.10;96906.09;4995521;28;19990;-82
2021/07/22 01:59:37;;;;;;;;;;;;;;;16.92;61.19;96900.22;4996391;28;20044;-82
2021/07/22 02:02:03;;;;;;;;;;;;;;;16.90;61.13;96896.22;4992514;28;19969;-80
2021/07/22 02:04:29;;;;;;;;;;;;;;;16.88;61.30;96898.31;4996283;28;19966;-80
2021/07/22 02:07:00;;;;;;;;;;;;;;;16.87;61.10;96894.88;4996374;28;19978;-81
2021/07/22 02:09:26;;;;;;;;;;;;;;;16.86;61.32;96890.63;4995259;28;20315;-82
2021/07/22 02:11:53;;;;;;;;;;;;;;;16.84;61.32;96887.44;4967015;28;20338;-82
2021/07/22 02:14:19;;;;;;;;;;;;;;;16.81;61.15;96880.78;4992058;28;19972;-79
2021/07/22 02:16:45;;;;;;;;;;;;;;;16.80;61.09;96884.47;4994283;28;20402;-80
2021/07/22 02:19:11;;;;;;;;;;;;;;;16.78;61.36;96880.47;4974111;28;19970;-80
2021/07/22 02:21:37;;;;;;;;;;;;;;;16.79;61.71;96882.03;4999328;28;19973;-80
2021/07/22 02:24:04;;;;;;;;;;;;;;;16.77;62.12;96882.28;4998828;28;19985;-80
2021/07/22 02:26:30;;;;;;;;;;;;;;;16.75;61.99;96883.56;4999386;28;19981;-79
2021/07/22 02:28:56;;;;;;;;;;;;;;;16.71;62.76;96880.63;4999304;28;19966;-81
2021/07/22 02:31:22;;;;;;;;;;;;;;;16.71;62.01;96885.91;4995342;28;20049;-81
2021/07/22 02:33:48;;;;;;;;;;;;;;;16.66;62.10;96885.06;4998840;28;20102;-81
2021/07/22 02:36:14;;;;;;;;;;;;;;;16.56;62.52;96888.38;4976483;28;20001;-81
2021/07/22 02:38:40;;;;;;;;;;;;;;;16.51;62.63;96881.16;4995624;28;19982;-81
2021/07/22 02:41:06;;;;;;;;;;;;;;;16.48;62.95;96891.44;5009046;28;19966;-78
2021/07/22 02:43:32;;;;;;;;;;;;;;;16.45;63.07;96892.72;5016357;28;20437;-79
2021/07/22 02:46:04;;;;;;;;;;;;;;;16.41;63.28;96894.25;4998829;28;19970;-77
2021/07/22 02:48:29;;;;;;;;;;;;;;;16.37;63.33;96893.94;4999165;28;19965;-78
2021/07/22 02:50:59;;;;;;;;;;;;;;;16.33;63.48;96898.13;4994551;28;20061;-78
2021/07/22 02:53:25;;;;;;;;;;;;;;;16.28;63.54;96900.72;5016072;28;19966;-78
2021/07/22 02:55:53;;;;;;;;;;;;;;;16.22;63.88;96902.47;4999282;28;20350;-77
2021/07/22 02:58:19;;;;;;;;;;;;;;;16.18;64.03;96900.56;5012260;28;19981;-78
2021/07/22 03:00:45;;;;;;;;;;;;;;;16.14;64.06;96904.72;4998704;28;19969;-78
2021/07/22 03:03:30;;;;;;;;;;;;;;;16.11;64.20;96900.72;5008981;28;20422;-79
2021/07/22 03:05:55;;;;;;;;;;;;;;;16.09;64.18;96909.94;4982387;28;19970;-80
2021/07/22 03:08:21;;;;;;;;;;;;;;;16.04;64.68;96902.72;5016106;28;20348;-80
2021/07/22 03:10:48;;;;;;;;;;;;;;;16.00;64.70;96912.19;5015871;28;19970;-78
2021/07/22 03:13:14;;;;;;;;;;;;;;;15.97;64.55;96902.09;5015828;28;19972;-79
2021/07/22 03:15:40;;;;;;;;;;;;;;;15.96;64.86;96896.00;4998679;28;19970;-80
2021/07/22 03:18:06;;;;;;;;;;;;;;;15.96;64.58;96908.44;4981999;28;19981;-79
2021/07/22 03:20:32;;;;;;;;;;;;;;;15.98;64.74;96908.97;4990938;28;20422;-80
2021/07/22 03:23:00;;;;;;;;;;;;;;;15.98;64.59;96909.78;4975071;28;19970;-81
2021/07/22 03:25:26;;;;;;;;;;;;;;;15.99;64.34;96905.28;4986285;28;20346;-80
2021/07/22 03:27:54;;;;;;;;;;;;;;;16.00;64.49;96902.41;4998171;28;20057;-77
2021/07/22 03:30:20;;;;;;;;;;;;;;;16.01;64.75;96904.00;5014424;28;20449;-79
2021/07/22 03:32:45;;;;;;;;;;;;;;;16.01;64.45;96890.78;4978414;28;19970;-77
2021/07/22 03:35:11;;;;;;;;;;;;;;;16.02;64.77;96908.28;4992412;28;19997;-78
2021/07/22 03:37:37;;;;;;;;;;;;;;;16.00;64.64;96897.13;4997825;28;20533;-79
2021/07/22 03:40:03;;;;;;;;;;;;;;;15.98;64.59;96903.69;4981461;28;20005;-79
2021/07/22 03:42:31;;;;;;;;;;;;;;;15.93;64.41;96907.06;4997304;28;20310;-79
2021/07/22 03:44:57;;;;;;;;;;;;;;;15.92;64.66;96902.81;4997741;28;19972;-78
2021/07/22 03:47:22;;;;;;;;;;;;;;;15.90;64.59;96904.91;5015755;28;20069;-79
2021/07/22 03:49:48;;;;;;;;;;;;;;;15.91;64.35;96901.19;4994395;28;20009;-85
2021/07/22 03:52:17;;;;;;;;;;;;;;;15.87;65.12;96900.06;5015383;28;20032;-87
2021/07/22 03:54:43;;;;;;;;;;;;;;;15.85;64.98;96906.66;5013688;28;20001;-79
2021/07/22 03:57:09;;;;;;;;;;;;;;;15.84;65.16;96900.56;5015056;28;19969;-80
2021/07/22 03:59:35;;;;;;;;;;;;;;;15.82;65.63;96910.59;4997343;28;20392;-79
2021/07/22 04:02:01;;;;;;;;;;;;;;;15.83;65.54;96904.25;5015459;28;19966;-79
2021/07/22 04:04:27;;;;;;;;;;;;;;;15.83;65.80;96912.19;4981131;28;19981;-78
2021/07/22 04:06:53;;;;;;;;;;;;;;;15.84;65.27;96908.50;5014915;28;19966;-78
2021/07/22 04:09:19;;;;;;;;;;;;;;;15.83;65.43;96906.88;5014950;28;20020;-78
2021/07/22 04:11:45;;;;;;;;;;;;;;;15.81;65.66;96909.78;5014711;28;19974;-79
2021/07/22 04:14:11;;;;;;;;;;;;;;;15.81;65.80;96909.78;4996998;28;19977;-78
2021/07/22 04:16:37;;;;;;;;;;;;;;;15.82;65.85;96914.03;5002898;28;19966;-88
2021/07/22 04:19:03;;;;;;;;;;;;;;;15.83;65.91;96912.19;4977729;28;19989;-84
2021/07/22 04:21:29;;;;;;;;;;;;;;;15.86;65.98;96913.56;5010579;28;19966;-85
2021/07/22 04:23:55;;;;;;;;;;;;;;;15.87;66.03;96915.16;4996679;28;19971;-84
2021/07/22 04:26:21;;;;;;;;;;;;;;;15.88;66.19;96912.28;4997060;28;20449;-83
2021/07/22 04:28:47;;;;;;;;;;;;;;;15.92;66.51;96915.25;4972370;28;20064;-78
2021/07/22 04:31:16;;;;;;;;;;;;;;;15.93;66.69;96912.34;4997186;28;20341;-83
2021/07/22 04:33:42;;;;;;;;;;;;;;;15.98;67.03;96915.09;4980405;28;19966;-83
2021/07/22 04:36:08;;;;;;;;;;;;;;;16.03;66.89;96909.06;5003598;28;19965;-79
2021/07/22 04:38:36;;;;;;;;;;;;;;;16.09;66.87;96910.75;5002274;28;19981;-80
2021/07/22 04:41:09;;;;;;;;;;;;;;;16.16;66.46;96900.78;5014187;28;19960;-79
2021/07/22 04:43:35;;;;;;;;;;;;;;;16.27;66.46;96907.03;5009726;28;19966;-80
2021/07/22 04:46:01;;;;;;;;;;;;;;;16.37;66.40;96911.69;4996868;28;19977;-79
2021/07/22 04:48:28;;;;;;;;;;;;;;;16.46;66.48;96915.50;4996743;28;20219;-77
2021/07/22 04:50:54;;;;;;;;;;;;;;;16.51;66.54;96914.78;5014583;28;19970;-81
2021/07/22 04:53:20;;;;;;;;;;;;;;;16.59;65.92;96909.09;5013982;28;20065;-82
2021/07/22 04:55:46;;;;;;;;;;;;;;;16.73;66.19;96914.81;4988788;28;19973;-80
2021/07/22 04:58:12;;;;;;;;;;;;;;;16.89;65.83;96907.91;4996595;28;20005;-79
2021/07/22 05:00:38;;;;;;;;;;;;;;;17.08;65.98;96909.16;5014158;28;19977;-80
2021/07/22 05:03:04;;;;;;;;;;;;;;;17.23;65.14;96901.38;5014003;28;20060;-77
2021/07/22 05:05:35;;;;;;;;;;;;;;;17.25;64.42;96906.44;5014148;28;20437;-80
2021/07/22 05:08:01;;;;;;;;;;;;;;;17.28;64.35;96907.78;5014266;28;20341;-80
2021/07/22 05:10:29;;;;;;;;;;;;;;;17.30;64.57;96911.00;5013845;28;20435;-81
2021/07/22 05:12:59;;;;;;;;;;;;;;;17.27;65.27;96914.94;4986023;28;20398;-80
2021/07/22 05:15:25;;;;;;;;;;;;;;;17.25;65.03;96917.84;4995995;28;19968;-81
2021/07/22 05:17:50;;;;;;;;;;;;;;;17.32;64.65;96907.03;4990642;28;19982;-81
2021/07/22 05:20:16;;;;;;;;;;;;;;;17.34;64.35;96907.59;4996261;28;20068;-80
2021/07/22 05:22:42;;;;;;;;;;;;;;;17.33;63.93;96916.59;4995911;28;19977;-82
2021/07/22 05:25:08;;;;;;;;;;;;;;;17.31;64.31;96910.75;5014048;28;19977;-81
2021/07/22 05:27:34;;;;;;;;;;;;;;;17.32;65.42;96924.78;4993214;28;20346;-80
2021/07/22 05:30:01;;;;;;;;;;;;;;;17.52;65.16;96919.72;4996505;28;19970;-81
2021/07/22 05:32:26;;;;;;;;;;;;;;;17.87;63.67;96913.16;4996181;28;20338;-78
2021/07/22 05:34:52;;;;;;;;;;;;;;;18.14;62.60;96910.44;5014141;28;19966;-81
2021/07/22 05:37:18;;;;;;;;;;;;;;;18.22;61.32;96903.84;4995782;28;20437;-82
2021/07/22 05:39:44;;;;;;;;;;;;;;;18.27;62.23;96919.84;4995274;28;19973;-80
2021/07/22 05:42:10;;;;;;;;;;;;;;;18.34;62.51;96915.09;5013895;28;20064;-82
2021/07/22 05:44:36;;;;;;;;;;;;;;;18.32;62.53;96919.84;5013818;28;20080;-80
2021/07/22 05:47:02;;;;;;;;;;;;;;;18.28;62.49;96924.06;4980102;28;20001;-80
2021/07/22 05:49:29;;;;;;;;;;;;;;;18.38;63.41;96928.66;5002051;28;19969;-80
2021/07/22 05:51:55;;;;;;;;;;;;;;;18.79;62.14;96927.06;4998331;28;20358;-81
2021/07/22 05:54:20;;;;;;;;;;;;;;;19.29;61.56;96916.06;4996596;28;20081;-80
2021/07/22 05:56:46;;;;;;;;;;;;;;;19.69;59.83;96910.03;4996588;28;19966;-80
2021/07/22 05:59:12;;;;;;;;;;;;;;;20.11;59.68;96905.53;4996146;28;20485;-80
2021/07/22 06:01:38;;;;;;;;;;;;;;;20.48;58.19;96897.22;4997955;28;19974;-80
2021/07/22 06:04:04;;;;;;;;;;;;;;;20.81;57.69;96892.34;5012333;28;20522;-81
2021/07/22 06:06:30;;;;;;;;;;;;;;;21.14;57.02;96887.41;4996558;28;20021;-81
2021/07/22 06:09:01;;;;;;;;;;;;;;;21.45;56.48;96880.84;5012698;28;20012;-81
2021/07/22 06:11:27;;;;;;;;;;;;;;;21.73;55.29;96875.06;4986295;28;19988;-80
2021/07/22 06:14:11;;;;;;;;;;;;;;;21.98;52.68;96852.69;4991574;28;19970;-81
2021/07/22 06:16:38;;;;;;;;;;;;;;;22.20;52.57;96857.56;4996179;28;19993;-81
2021/07/22 06:19:04;;;;;;;;;;;;;;;22.37;52.76;96862.50;4996339;28;20422;-82
2021/07/22 06:21:30;;;;;;;;;;;;;;;22.56;52.01;96855.34;4974927;28;20028;-81
2021/07/22 06:23:56;;;;;;;;;;;;;;;22.75;52.27;96859.94;4996481;28;19976;-81
2021/07/22 06:26:22;;;;;;;;;;;;;;;22.89;51.18;96858.16;4996364;28;19974;-81
2021/07/22 06:28:48;;;;;;;;;;;;;;;23.00;51.12;96848.91;5012206;28;20065;-81
2021/07/22 06:31:14;;;;;;;;;;;;;;;23.05;51.37;96864.13;4993647;28;19962;-82
2021/07/22 06:33:40;;;;;;;;;;;;;;;23.09;50.88;96851.75;4995963;28;20394;-82
2021/07/22 06:36:06;;;;;;;;;;;;;;;23.18;51.13;96866.09;4975560;28;20028;-83
2021/07/22 06:38:33;;;;;;;;;;;;;;;23.24;50.53;96858.78;4979687;28;19986;-82
2021/07/22 06:40:59;;;;;;;;;;;;;;;23.31;50.49;96861.91;4996911;28;20415;-82
2021/07/22 06:43:27;;;;;;;;;;;;;;;23.40;50.68;96870.06;4972662;28;20010;-82
2021/07/22 06:45:52;;;;;;;;;;;;;;;23.53;50.12;96865.84;4979793;28;19966;-83
2021/07/22 06:48:18;;;;;;;;;;;;;;;23.62;49.79;96858.75;5003298;28;20372;-82
2021/07/22 06:50:44;;;;;;;;;;;;;;;23.74;50.47;96877.06;4979440;28;19973;-81
2021/07/22 06:53:10;;;;;;;;;;;;;;;23.81;49.23;96872.13;4978770;28;19977;-83
2021/07/22 06:55:36;;;;;;;;;;;;;;;23.91;49.35;96874.66;4995113;28;20362;-81
2021/07/22 06:58:06;;;;;;;;;;;;;;;24.02;48.36;96870.72;4994984;28;19986;-83
2021/07/22 07:00:32;;;;;;;;;;;;;;;24.11;47.83;96866.28;4973137;28;19973;-82
2021/07/22 07:03:05;;;;;;;;;;;;;;;24.18;47.63;96859.72;4995115;28;19970;-83
2021/07/22 07:05:32;;;;;;;;;;;;;;;24.28;48.55;96876.41;5009038;28;19967;-81
2021/07/22 07:07:58;;;;;;;;;;;;;;;24.47;48.33;96875.56;4997103;28;19973;-81
2021/07/22 07:10:24;;;;;;;;;;;;;;;24.58;48.15;96871.59;4996409;28;19996;-83
2021/07/22 07:12:50;;;;;;;;;;;;;;;24.70;47.90;96858.50;4979764;28;19966;-84
2021/07/22 07:15:16;;;;;;;;;;;;;;;24.85;46.81;96860.06;4987759;28;19970;-83
2021/07/22 07:17:42;;;;;;;;;;;;;;;24.99;47.89;96861.94;4996603;28;20329;-82
2021/07/22 07:20:08;;;;;;;;;;;;;;;25.08;47.42;96868.97;4978908;28;20069;-86
2021/07/22 07:22:34;;;;;;;;;;;;;;;25.18;47.37;96865.28;4983450;28;19966;-86
2021/07/22 07:25:00;;;;;;;;;;;;;;;25.29;47.21;96863.19;4994312;28;19980;-85
2021/07/22 07:27:26;;;;;;;;;;;;;;;25.36;46.30;96868.16;4995157;28;19970;-88
2021/07/22 07:29:52;;;;;;;;;;;;;;;25.34;46.01;96859.59;4994343;28;19973;-87
2021/07/22 07:32:17;;;;;;;;;;;;;;;25.38;46.20;96863.28;4996080;28;20357;-84
2021/07/22 07:34:43;;;;;;;;;;;;;;;25.45;46.24;96861.78;4994491;28;20002;-87
2021/07/22 07:37:10;;;;;;;;;;;;;;;25.51;46.99;96862.41;4994945;28;20342;-86
2021/07/22 07:39:35;;;;;;;;;;;;;;;25.60;46.91;96863.31;4995881;28;20426;-88
2021/07/22 07:42:02;;;;;;;;;;;;;;;25.65;45.47;96848.94;4994801;28;19977;-88
2021/07/22 07:44:28;;;;;;;;;;;;;;;25.66;45.73;96863.94;4994188;28;19962;-88
2021/07/22 07:46:53;;;;;;;;;;;;;;;25.74;46.03;96865.91;4996077;28;19970;-89
2021/07/22 07:49:19;;;;;;;;;;;;;;;25.77;45.24;96854.56;4994535;28;20422;-88
2021/07/22 07:51:45;;;;;;;;;;;;;;;25.88;44.97;96855.09;4996064;28;20017;-88
2021/07/22 07:54:11;;;;;;;;;;;;;;;25.98;45.20;96859.47;5003215;28;20085;-86
2021/07/22 07:56:38;;;;;;;;;;;;;;;26.09;45.67;96856.19;4997250;28;20426;-87
2021/07/22 07:59:04;;;;;;;;;;;;;;;26.17;45.65;96857.34;5013552;28;19992;-90
2021/07/22 08:01:30;;;;;;;;;;;;;;;26.24;45.42;96856.91;5006080;28;19973;-88
2021/07/22 08:03:57;;;;;;;;;;;;;;;26.31;45.27;96874.19;4980853;28;20433;-87
2021/07/22 08:06:23;;;;;;;;;;;;;;;26.34;45.14;96864.72;4978014;28;19973;-87
2021/07/22 08:08:49;;;;;;;;;;;;;;;26.36;44.59;96856.34;4977605;28;20315;-87
2021/07/22 08:11:15;;;;;;;;;;;;;;;26.39;44.93;96850.34;4977726;28;19974;-89
2021/07/22 08:13:41;;;;;;;;;;;;;;;26.35;45.18;96854.75;4988945;28;19977;-88
2021/07/22 08:16:07;;;;;;;;;;;;;;;26.36;45.46;96859.81;4991009;28;19962;-87
2021/07/22 08:18:33;;;;;;;;;;;;;;;26.42;45.29;96850.50;4997565;28;20357;-89
2021/07/22 08:20:59;;;;;;;;;;;;;;;26.50;44.99;96851.63;4996726;28;19972;-86
2021/07/22 08:23:25;;;;;;;;;;;;;;;26.63;44.50;96852.69;4985861;28;20072;-85
2021/07/22 08:25:51;;;;;;;;;;;;;;;26.71;44.53;96849.19;4997009;28;19966;-86
2021/07/22 08:28:17;;;;;;;;;;;;;;;26.73;43.14;96839.72;4996645;28;19977;-87
2021/07/22 08:30:43;;;;;;;;;;;;;;;26.72;42.90;96842.72;4991681;28;20064;-86
2021/07/22 08:33:09;;;;;;;;;;;;;;;26.53;43.46;96870.63;4997089;28;20476;-86
2021/07/22 08:35:35;;;;;;;;;;;;;;;26.60;43.45;96866.72;4969327;28;20331;-85
2021/07/22 08:38:01;;;;;;;;;;;;;;;26.67;43.01;96859.81;4996217;28;19977;-80
2021/07/22 08:40:27;;;;;;;;;;;;;;;26.76;43.48;96867.91;4996994;28;20362;-82
2021/07/22 08:42:53;;;;;;;;;;;;;;;26.78;43.08;96865.69;5014065;28;19966;-81
2021/07/22 08:45:19;;;;;;;;;;;;;;;26.69;42.39;96856.78;4996710;28;19966;-88
2021/07/22 08:47:46;;;;;;;;;;;;;;;26.70;41.49;96856.47;5013346;28;19969;-86
2021/07/22 08:50:13;;;;;;;;;;;;;;;26.66;42.74;96863.59;4996711;28;19966;-87
2021/07/22 08:52:40;;;;;;;;;;;;;;;26.72;43.17;96867.72;4989216;28;19970;-88
2021/07/22 08:55:09;;;;;;;;;;;;;;;26.75;42.88;96863.59;4990778;28;20009;-83
2021/07/22 08:57:36;;;;;;;;;;;;;;;26.74;42.38;96864.72;4994529;28;19966;-85
2021/07/22 09:00:04;;;;;;;;;;;;;;;26.74;41.59;96856.66;4976919;28;19997;-84
2021/07/22 09:02:31;;;;;;;;;;;;;;;26.75;42.31;96863.59;5009740;28;19973;-85
2021/07/22 09:04:58;;;;;;;;;;;;;;;26.58;40.99;96868.94;4994768;28;20419;-83
2021/07/22 09:07:25;;;;;;;;;;;;;;;26.58;41.17;96866.25;4992950;28;19973;-84
2021/07/22 09:10:03;;;;;;;;;;;;;;;26.53;41.31;96872.53;4992941;28;19962;-84
2021/07/22 09:12:46;;;;;;;;;;;;;;;26.59;40.63;96863.25;4993157;28;19976;-84
2021/07/22 09:15:25;;;;;;;;;;;;;;;26.70;39.16;96853.78;5009555;28;19966;-89
2021/07/22 09:17:52;;;;;;;;;;;;;;;26.90;41.69;96873.97;4985790;28;20341;-89
2021/07/22 09:20:38;;;;;;;;;;;;;;;26.98;39.85;96864.28;4993190;28;19982;-86
2021/07/22 09:23:04;;;;;;;;;;;;;;;27.02;40.69;96870.63;4991839;28;19966;-87
2021/07/22 09:25:43;;;;;;;;;;;;;;;27.10;39.74;96863.69;4978498;28;20427;-86
2021/07/22 09:28:26;;;;;;;;;;;;;;;26.96;37.44;96854.97;4984114;28;19970;-85
2021/07/22 09:31:03;;;;;;;;;;;;;;;26.72;35.83;96867.72;4992393;28;19962;-85
2021/07/22 09:33:36;;;;;;;;;;;;;;;26.50;37.04;96859.69;4994222;28;19993;-85
2021/07/22 09:36:02;;;;;;;;;;;;;;;26.39;36.55;96869.94;4994395;28;19973;-84
2021/07/22 09:38:28;;;;;;;;;;;;;;;26.33;35.93;96860.41;5004967;28;19986;-85
2021/07/22 09:40:54;;;;;;;;;;;;;;;26.25;36.89;96870.06;4992805;28;20426;-85
2021/07/22 09:43:34;;;;;;;;;;;;;;;26.33;39.11;96876.56;4992743;28;20438;-85
2021/07/22 09:46:00;;;;;;;;;;;;;;;26.32;36.36;96859.63;4982464;28;19966;-86
2021/07/22 09:48:26;;;;;;;;;;;;;;;26.36;36.57;96867.09;4992553;28;20526;-86
2021/07/22 09:50:52;;;;;;;;;;;;;;;26.31;38.49;96873.38;4992812;28;20053;-86
2021/07/22 09:53:20;;;;;;;;;;;;;;;26.30;37.11;96859.16;4992888;28;20028;-87
2021/07/22 09:55:46;;;;;;;;;;;;;;;26.37;36.98;96844.47;4995964;28;19981;-87
2021/07/22 09:58:13;;;;;;;;;;;;;;;26.43;38.56;96860.16;4996290;28;19973;-86
2021/07/22 10:00:42;;;;;;;;;;;;;;;26.40;38.92;96855.41;5013477;28;19966;-85
2021/07/22 10:03:10;;;;;;;;;;;;;;;26.57;40.49;96865.47;5006419;28;19992;-85
2021/07/22 10:05:40;;;;;;;;;;;;;;;26.80;39.85;96863.47;5013463;28;19973;-86
2021/07/22 10:08:06;;;;;;;;;;;;;;;27.03;40.42;96855.31;4995857;28;20342;-85
2021/07/22 10:10:34;;;;;;;;;;;;;;;27.25;39.31;96846.31;4996802;28;19966;-85
2021/07/22 10:13:00;;;;;;;;;;;;;;;27.38;38.78;96844.56;5013689;28;19966;-85
2021/07/22 10:15:32;;;;;;;;;;;;;;;27.49;38.75;96843.94;4998143;28;19969;-87
2021/07/22 10:17:58;;;;;;;;;;;;;;;27.63;39.15;96835.66;5013412;28;19966;-86
2021/07/22 10:20:28;;;;;;;;;;;;;;;27.71;37.93;96820.63;5013339;28;20001;-86
2021/07/22 10:22:55;;;;;;;;;;;;;;;27.70;38.46;96830.59;5008599;28;19969;-89
2021/07/22 10:25:21;;;;;;;;;;;;;;;27.81;38.89;96832.97;5013516;28;19974;-87
2021/07/22 10:27:47;;;;;;;;;;;;;;;27.87;39.54;96835.19;4995851;28;19973;-87
2021/07/22 10:30:14;;;;;;;;;;;;;;;27.88;37.43;96825.19;5013581;28;19973;-87
2021/07/22 10:32:43;;;;;;;;;;;;;;;27.87;37.99;96824.41;4989128;28;19969;-87
2021/07/22 10:35:10;;;;;;;;;;;;;;;27.89;39.16;96832.97;4991988;28;19970;-87
2021/07/22 10:37:36;;;;;;;;;;;;;;;28.02;37.89;96827.72;5016399;28;19966;-87
2021/07/22 10:40:10;;;;;;;;;;;;;;;28.16;37.88;96825.63;5000052;28;19993;-87
2021/07/22 10:42:42;;;;;;;;;;;;;;;28.31;36.85;96813.50;5016844;28;20411;-88
2021/07/22 10:45:17;;;;;;;;;;;;;;;28.37;39.21;96822.19;5016725;28;19977;-91
2021/07/22 10:47:59;;;;;;;;;;;;;;;28.43;37.91;96815.50;4998415;28;20410;-89
2021/07/22 10:50:37;;;;;;;;;;;;;;;28.49;37.20;96809.59;4998814;28;19961;-86
2021/07/22 10:53:04;;;;;;;;;;;;;;;28.57;38.36;96807.22;4999092;28;19965;-84
2021/07/22 10:55:51;;;;;;;;;;;;;;;28.63;38.11;96806.69;5014795;28;20005;-83
2021/07/22 10:58:23;;;;;;;;;;;;;;;28.70;37.74;96798.84;4998206;28;19976;-87
2021/07/22 11:00:49;;;;;;;;;;;;;;;28.80;38.10;96802.31;4998218;28;19962;-86
2021/07/22 11:03:34;;;;;;;;;;;;;;;28.94;38.27;96805.56;4999014;28;19973;-86
2021/07/22 11:06:00;;;;;;;;;;;;;;;29.09;38.37;96796.06;5004005;28;19988;-87
2021/07/22 11:08:29;;;;;;;;;;;;;;;29.14;38.16;96787.78;4996881;28;19966;-87
2021/07/22 11:10:59;;;;;;;;;;;;;;;29.24;36.80;96784.69;4988577;28;19977;-82
2021/07/22 11:13:34;;;;;;;;;;;;;;;29.28;38.47;96801.81;4981674;28;20422;-87
2021/07/22 11:16:01;;;;;;;;;;;;;;;29.40;37.19;96789.47;4998453;28;19965;-88
2021/07/22 11:18:43;;;;;;;;;;;;;;;29.42;36.25;96779.13;4998412;28;19962;-88
2021/07/22 11:21:15;;;;;;;;;;;;;;;29.29;35.89;96789.91;4997974;28;19969;-87
2021/07/22 11:23:41;;;;;;;;;;;;;;;29.32;35.85;96788.44;5015738;28;19966;-88
2021/07/22 11:26:07;;;;;;;;;;;;;;;29.27;36.49;96786.75;5004843;28;19981;-87
2021/07/22 11:28:34;;;;;;;;;;;;;;;29.40;38.11;96803.78;5014526;28;20410;-88
2021/07/22 11:31:01;;;;;;;;;;;;;;;29.54;37.45;96787.28;4998339;28;19976;-87
2021/07/22 11:33:45;;;;;;;;;;;;;;;29.71;37.08;96787.16;4998518;28;19965;-87
2021/07/22 11:36:12;;;;;;;;;;;;;;;29.79;35.98;96771.94;4998281;28;19969;-87
2021/07/22 11:38:39;;;;;;;;;;;;;;;29.77;34.45;96773.41;5015588;28;19962;-87
2021/07/22 11:41:14;;;;;;;;;;;;;;;29.67;34.19;96771.88;4997941;28;19985;-87
2021/07/22 11:43:41;;;;;;;;;;;;;;;29.69;36.03;96780.44;4997325;28;19976;-88
2021/07/22 11:46:08;;;;;;;;;;;;;;;29.81;36.30;96787.84;5013620;28;19973;-89
2021/07/22 11:48:34;;;;;;;;;;;;;;;29.76;35.41;96775.31;5008761;28;19972;-87
2021/07/22 11:51:06;;;;;;;;;;;;;;;29.71;37.14;96784.44;5015421;28;19966;-88
2021/07/22 11:53:32;;;;;;;;;;;;;;;29.84;37.31;96781.75;5014089;28;19969;-89
2021/07/22 11:56:00;;;;;;;;;;;;;;;29.86;34.90;96765.97;5015316;28;19981;-89
2021/07/22 11:58:26;;;;;;;;;;;;;;;29.64;34.15;96759.03;4998046;28;20037;-89
2021/07/22 12:00:53;;;;;;;;;;;;;;;29.19;33.37;96757.91;4997642;28;19988;-90
2021/07/22 12:03:23;;;;;;;;;;;;;;;28.74;34.94;96769.31;4997656;28;19988;-88
2021/07/22 12:05:49;;;;;;;;;;;;;;;28.75;35.26;96762.81;4998046;28;19981;-89
2021/07/22 12:08:20;;;;;;;;;;;;;;;29.00;37.94;96774.53;5007151;28;19981;-88
2021/07/22 12:10:46;;;;;;;;;;;;;;;29.31;36.51;96759.84;4997353;28;20342;-87
2021/07/22 12:13:12;;;;;;;;;;;;;;;29.60;36.61;96758.91;4997730;28;20410;-86
2021/07/22 12:15:45;;;;;;;;;;;;;;;29.70;35.54;96747.72;5011137;28;19973;-86
2021/07/22 12:18:12;;;;;;;;;;;;;;;29.60;34.10;96741.91;4997404;28;19969;-86
2021/07/22 12:20:38;;;;;;;;;;;;;;;29.57;33.77;96740.69;5006840;28;19990;-86
2021/07/22 12:23:23;;;;;;;;;;;;;;;29.49;34.64;96738.84;4986956;28;19970;-87
2021/07/22 12:25:56;;;;;;;;;;;;;;;29.68;36.65;96749.94;4990216;28;19981;-86
2021/07/22 12:28:22;;;;;;;;;;;;;;;29.93;35.28;96744.59;5014642;28;19985;-87
2021/07/22 12:30:48;;;;;;;;;;;;;;;30.08;32.75;96724.22;5014476;28;20034;-89
2021/07/22 12:33:21;;;;;;;;;;;;;;;30.02;31.26;96715.53;5014426;28;19973;-87
2021/07/22 12:35:47;;;;;;;;;;;;;;;29.90;31.85;96712.81;4996446;28;19961;-87
2021/07/22 12:38:15;;;;;;;;;;;;;;;29.69;31.76;96710.97;4996646;28;20482;-87
2021/07/22 12:41:17;;;;;;;;;;;;;;;29.54;34.44;96735.94;4997776;28;19977;-86
2021/07/22 12:43:52;;;;;;;;;;;;;;;29.59;32.49;96713.28;5014583;28;19962;-87
2021/07/22 12:46:19;;;;;;;;;;;;;;;29.53;33.94;96715.44;5014417;28;19969;-87
2021/07/22 12:48:46;;;;;;;;;;;;;;;29.44;35.52;96731.75;5013192;28;19966;-86